Terminal Aerodrome Forecast
Issued by NWS

Current Version | Previous Version | Graphics & Text | Print | Product List | Glossary On
Versions: 1 2 3 4 5 6 7 8 9 10 11 12 13 14 15 16
594
FTUS41 KPBZ 181120
TAFMGW
TAF
KMGW 181120Z 1812/1912 19008KT P6SM -SHRA OVC050 WS020/22040KT
     FM181300 19008KT 5SM -SHRA OVC035 WS020/22040KT
     FM181800 20010G20KT P6SM -SHRA OVC035
     FM190200 20015G33KT 3SM SHRA OVC025
     FM190600 27020G35KT 4SM -SHRA OVC015
     FM191000 28020G30KT P6SM VCSH OVC015=

USA.gov is the U.S. government's official web portal to all federal, state and local government web resources and services.